sensor_id;sensor_type;location;lat;lon;timestamp;temperature;humidity
5697;DHT22;2873;50.966;7.210;2022-12-18T00:01:37;-3.10;99.90
5697;DHT22;2873;50.966;7.210;2022-12-18T00:04:04;-3.00;99.90
5697;DHT22;2873;50.966;7.210;2022-12-18T00:06:31;-3.00;99.90
5697;DHT22;2873;50.966;7.210;2022-12-18T00:08:58;-3.00;99.90
5697;DHT22;2873;50.966;7.210;2022-12-18T00:11:26;-2.90;99.90
5697;DHT22;2873;50.966;7.210;2022-12-18T00:13:54;-2.90;99.90
5697;DHT22;2873;50.966;7.210;2022-12-18T00:16:22;-2.70;99.90
5697;DHT22;2873;50.966;7.210;2022-12-18T00:18:54;-2.80;99.90
5697;DHT22;2873;50.966;7.210;2022-12-18T00:21:20;-2.80;99.90
5697;DHT22;2873;50.966;7.210;2022-12-18T00:23:47;-2.80;99.90
5697;DHT22;2873;50.966;7.210;2022-12-18T00:26:22;-2.80;99.90
5697;DHT22;2873;50.966;7.210;2022-12-18T00:28:48;-2.80;99.90
5697;DHT22;2873;50.966;7.210;2022-12-18T00:31:17;-2.70;99.90
5697;DHT22;2873;50.966;7.210;2022-12-18T00:33:43;-2.70;99.90
5697;DHT22;2873;50.966;7.210;2022-12-18T00:36:15;-2.70;99.90
5697;DHT22;2873;50.966;7.210;2022-12-18T00:38:41;-2.80;99.90
5697;DHT22;2873;50.966;7.210;2022-12-18T00:41:09;-2.80;99.90
5697;DHT22;2873;50.966;7.210;2022-12-18T00:43:36;-2.80;99.90
5697;DHT22;2873;50.966;7.210;2022-12-18T00:46:02;-2.80;99.90
5697;DHT22;2873;50.966;7.210;2022-12-18T00:48:27;-2.90;99.90
5697;DHT22;2873;50.966;7.210;2022-12-18T00:50:53;-2.60;99.90
5697;DHT22;2873;50.966;7.210;2022-12-18T00:53:19;-2.90;99.90
5697;DHT22;2873;50.966;7.210;2022-12-18T00:55:45;-2.80;99.90
5697;DHT22;2873;50.966;7.210;2022-12-18T00:58:12;-2.80;99.90
5697;DHT22;2873;50.966;7.210;2022-12-18T01:00:38;-2.80;99.90
5697;DHT22;2873;50.966;7.210;2022-12-18T01:03:04;-2.80;99.90
5697;DHT22;2873;50.966;7.210;2022-12-18T01:05:30;-2.80;99.90
5697;DHT22;2873;50.966;7.210;2022-12-18T01:07:56;-2.80;99.90
5697;DHT22;2873;50.966;7.210;2022-12-18T01:10:22;-2.70;99.90
5697;DHT22;2873;50.966;7.210;2022-12-18T01:12:48;-2.70;99.90
5697;DHT22;2873;50.966;7.210;2022-12-18T01:15:15;-2.80;99.90
5697;DHT22;2873;50.966;7.210;2022-12-18T01:17:41;-2.70;99.90
5697;DHT22;2873;50.966;7.210;2022-12-18T01:20:07;-2.70;99.90
5697;DHT22;2873;50.966;7.210;2022-12-18T01:22:34;-2.80;99.90
5697;DHT22;2873;50.966;7.210;2022-12-18T01:24:59;-2.80;99.90
5697;DHT22;2873;50.966;7.210;2022-12-18T01:27:25;-2.80;99.90
5697;DHT22;2873;50.966;7.210;2022-12-18T01:29:51;-2.90;99.90
5697;DHT22;2873;50.966;7.210;2022-12-18T01:32:16;-2.90;99.90
5697;DHT22;2873;50.966;7.210;2022-12-18T01:34:42;-3.00;99.90
5697;DHT22;2873;50.966;7.210;2022-12-18T01:37:08;-3.00;99.90
5697;DHT22;2873;50.966;7.210;2022-12-18T01:39:33;-3.00;99.90
5697;DHT22;2873;50.966;7.210;2022-12-18T01:42:01;-3.00;99.90
5697;DHT22;2873;50.966;7.210;2022-12-18T01:49:53;-3.00;99.90
5697;DHT22;2873;50.966;7.210;2022-12-18T01:52:20;-3.00;99.90
5697;DHT22;2873;50.966;7.210;2022-12-18T01:54:47;-3.00;99.90
5697;DHT22;2873;50.966;7.210;2022-12-18T01:57:14;-3.00;99.90
5697;DHT22;2873;50.966;7.210;2022-12-18T01:59:41;-2.90;99.90
5697;DHT22;2873;50.966;7.210;2022-12-18T02:02:08;-2.90;99.90
5697;DHT22;2873;50.966;7.210;2022-12-18T02:04:34;-3.00;99.90
5697;DHT22;2873;50.966;7.210;2022-12-18T02:09:46;-3.10;99.90
5697;DHT22;2873;50.966;7.210;2022-12-18T02:12:17;-3.00;99.90
5697;DHT22;2873;50.966;7.210;2022-12-18T02:20:23;-3.00;99.90
5697;DHT22;2873;50.966;7.210;2022-12-18T02:26:26;-3.00;99.90
5697;DHT22;2873;50.966;7.210;2022-12-18T02:29:12;-2.90;99.90
5697;DHT22;2873;50.966;7.210;2022-12-18T02:31:51;-2.90;99.90
5697;DHT22;2873;50.966;7.210;2022-12-18T02:34:18;-2.90;99.90
5697;DHT22;2873;50.966;7.210;2022-12-18T02:36:45;-3.00;99.90
5697;DHT22;2873;50.966;7.210;2022-12-18T02:39:13;-2.90;99.90
5697;DHT22;2873;50.966;7.210;2022-12-18T02:41:40;-2.90;99.90
5697;DHT22;2873;50.966;7.210;2022-12-18T02:44:12;-2.90;99.90
5697;DHT22;2873;50.966;7.210;2022-12-18T02:46:43;-2.90;99.90
5697;DHT22;2873;50.966;7.210;2022-12-18T02:56:55;-3.10;99.90
5697;DHT22;2873;50.966;7.210;2022-12-18T02:59:58;-3.10;99.90
5697;DHT22;2873;50.966;7.210;2022-12-18T03:02:31;-3.20;99.90
5697;DHT22;2873;50.966;7.210;2022-12-18T03:05:19;-3.20;99.90
5697;DHT22;2873;50.966;7.210;2022-12-18T03:07:56;-3.20;99.90
5697;DHT22;2873;50.966;7.210;2022-12-18T03:10:28;-3.20;99.90
5697;DHT22;2873;50.966;7.210;2022-12-18T03:13:02;-3.30;99.90
5697;DHT22;2873;50.966;7.210;2022-12-18T03:15:34;-3.20;99.90
5697;DHT22;2873;50.966;7.210;2022-12-18T03:18:17;-3.20;99.90
5697;DHT22;2873;50.966;7.210;2022-12-18T03:20:44;-3.20;99.90
5697;DHT22;2873;50.966;7.210;2022-12-18T03:23:15;-3.00;99.90
5697;DHT22;2873;50.966;7.210;2022-12-18T03:25:44;-3.20;99.90
5697;DHT22;2873;50.966;7.210;2022-12-18T03:28:14;-3.20;99.90
5697;DHT22;2873;50.966;7.210;2022-12-18T03:30:42;-3.20;99.90
5697;DHT22;2873;50.966;7.210;2022-12-18T03:33:27;-3.20;99.90
5697;DHT22;2873;50.966;7.210;2022-12-18T03:35:54;-3.20;99.90
5697;DHT22;2873;50.966;7.210;2022-12-18T03:38:20;-3.00;99.90
5697;DHT22;2873;50.966;7.210;2022-12-18T03:41:15;-3.20;99.90
5697;DHT22;2873;50.966;7.210;2022-12-18T03:47:28;-3.10;99.90
5697;DHT22;2873;50.966;7.210;2022-12-18T03:49:38;-3.10;99.90
5697;DHT22;2873;50.966;7.210;2022-12-18T03:52:13;-3.20;99.90
5697;DHT22;2873;50.966;7.210;2022-12-18T03:54:41;-3.20;99.90
5697;DHT22;2873;50.966;7.210;2022-12-18T03:57:18;-3.20;99.90
5697;DHT22;2873;50.966;7.210;2022-12-18T03:59:46;-3.20;99.90
5697;DHT22;2873;50.966;7.210;2022-12-18T04:02:15;-3.20;99.90
5697;DHT22;2873;50.966;7.210;2022-12-18T04:04:42;-2.90;99.90
5697;DHT22;2873;50.966;7.210;2022-12-18T04:07:09;-3.10;99.90
5697;DHT22;2873;50.966;7.210;2022-12-18T04:09:36;-3.00;99.90
5697;DHT22;2873;50.966;7.210;2022-12-18T04:12:02;-3.10;99.90
5697;DHT22;2873;50.966;7.210;2022-12-18T04:14:27;-3.10;99.90
5697;DHT22;2873;50.966;7.210;2022-12-18T04:16:53;-3.10;99.90
5697;DHT22;2873;50.966;7.210;2022-12-18T04:19:18;-3.00;99.90
5697;DHT22;2873;50.966;7.210;2022-12-18T04:21:44;-3.10;99.90
5697;DHT22;2873;50.966;7.210;2022-12-18T04:24:09;-3.10;99.90
5697;DHT22;2873;50.966;7.210;2022-12-18T04:26:35;-3.00;99.90
5697;DHT22;2873;50.966;7.210;2022-12-18T04:29:01;-3.00;99.90
5697;DHT22;2873;50.966;7.210;2022-12-18T04:31:26;-3.10;99.90
5697;DHT22;2873;50.966;7.210;2022-12-18T04:33:52;-3.10;99.90
5697;DHT22;2873;50.966;7.210;2022-12-18T04:36:18;-3.10;99.90
5697;DHT22;2873;50.966;7.210;2022-12-18T04:38:43;-3.10;99.90
5697;DHT22;2873;50.966;7.210;2022-12-18T04:41:09;-3.10;99.90
5697;DHT22;2873;50.966;7.210;2022-12-18T04:43:34;-3.20;99.90
5697;DHT22;2873;50.966;7.210;2022-12-18T04:46:04;-2.90;99.90
5697;DHT22;2873;50.966;7.210;2022-12-18T04:48:30;-3.20;99.90
5697;DHT22;2873;50.966;7.210;2022-12-18T04:50:56;-3.10;99.90
5697;DHT22;2873;50.966;7.210;2022-12-18T04:53:21;-3.10;99.90
5697;DHT22;2873;50.966;7.210;2022-12-18T04:55:47;-3.10;99.90
5697;DHT22;2873;50.966;7.210;2022-12-18T04:58:12;-3.10;99.90
5697;DHT22;2873;50.966;7.210;2022-12-18T05:00:38;-3.10;99.90
5697;DHT22;2873;50.966;7.210;2022-12-18T05:03:03;-3.10;99.90
5697;DHT22;2873;50.966;7.210;2022-12-18T05:05:29;-3.20;99.90
5697;DHT22;2873;50.966;7.210;2022-12-18T05:07:54;-3.20;99.90
5697;DHT22;2873;50.966;7.210;2022-12-18T05:10:20;-3.20;99.90
5697;DHT22;2873;50.966;7.210;2022-12-18T05:12:45;-3.20;99.90
5697;DHT22;2873;50.966;7.210;2022-12-18T05:15:23;-3.20;99.90
5697;DHT22;2873;50.966;7.210;2022-12-18T05:17:49;-3.10;99.90
5697;DHT22;2873;50.966;7.210;2022-12-18T05:20:15;-3.10;99.90
5697;DHT22;2873;50.966;7.210;2022-12-18T05:22:40;-3.10;99.90
5697;DHT22;2873;50.966;7.210;2022-12-18T05:25:06;-3.10;99.90
5697;DHT22;2873;50.966;7.210;2022-12-18T05:27:32;-3.10;99.90
5697;DHT22;2873;50.966;7.210;2022-12-18T05:29:57;-3.00;99.90
5697;DHT22;2873;50.966;7.210;2022-12-18T05:32:23;-3.10;99.90
5697;DHT22;2873;50.966;7.210;2022-12-18T05:34:48;-3.10;99.90
5697;DHT22;2873;50.966;7.210;2022-12-18T05:37:14;-3.20;99.90
5697;DHT22;2873;50.966;7.210;2022-12-18T05:39:39;-3.20;99.90
5697;DHT22;2873;50.966;7.210;2022-12-18T05:42:05;-3.20;99.90
5697;DHT22;2873;50.966;7.210;2022-12-18T05:44:30;-3.20;99.90
5697;DHT22;2873;50.966;7.210;2022-12-18T05:46:56;-3.20;99.90
5697;DHT22;2873;50.966;7.210;2022-12-18T05:49:21;-3.10;99.90
5697;DHT22;2873;50.966;7.210;2022-12-18T05:51:47;-3.20;99.90
5697;DHT22;2873;50.966;7.210;2022-12-18T05:54:12;-3.20;99.90
5697;DHT22;2873;50.966;7.210;2022-12-18T05:56:38;-3.10;99.90
5697;DHT22;2873;50.966;7.210;2022-12-18T05:59:03;-3.10;99.90
5697;DHT22;2873;50.966;7.210;2022-12-18T06:01:29;-3.10;99.90
5697;DHT22;2873;50.966;7.210;2022-12-18T06:03:55;-3.20;99.90
5697;DHT22;2873;50.966;7.210;2022-12-18T06:06:23;-3.30;99.90
5697;DHT22;2873;50.966;7.210;2022-12-18T06:08:50;-3.20;99.90
5697;DHT22;2873;50.966;7.210;2022-12-18T06:11:21;-3.30;99.90
5697;DHT22;2873;50.966;7.210;2022-12-18T06:13:50;-3.20;99.90
5697;DHT22;2873;50.966;7.210;2022-12-18T06:16:16;-3.30;99.90
5697;DHT22;2873;50.966;7.210;2022-12-18T06:18:42;-3.00;99.90
5697;DHT22;2873;50.966;7.210;2022-12-18T06:21:07;-3.20;99.90
5697;DHT22;2873;50.966;7.210;2022-12-18T06:23:33;-3.20;99.90
5697;DHT22;2873;50.966;7.210;2022-12-18T06:26:02;-3.20;99.90
5697;DHT22;2873;50.966;7.210;2022-12-18T06:28:28;-3.20;99.90
5697;DHT22;2873;50.966;7.210;2022-12-18T06:30:53;-3.10;99.90
5697;DHT22;2873;50.966;7.210;2022-12-18T06:33:19;-3.10;99.90
5697;DHT22;2873;50.966;7.210;2022-12-18T06:35:45;-3.10;99.90
5697;DHT22;2873;50.966;7.210;2022-12-18T06:38:10;-3.10;99.90
5697;DHT22;2873;50.966;7.210;2022-12-18T06:40:37;-3.10;99.90
5697;DHT22;2873;50.966;7.210;2022-12-18T06:43:04;-3.10;99.90
5697;DHT22;2873;50.966;7.210;2022-12-18T06:45:29;-3.10;99.90
5697;DHT22;2873;50.966;7.210;2022-12-18T06:47:55;-3.10;99.90
5697;DHT22;2873;50.966;7.210;2022-12-18T06:50:20;-3.20;99.90
5697;DHT22;2873;50.966;7.210;2022-12-18T06:52:47;-3.00;99.90
5697;DHT22;2873;50.966;7.210;2022-12-18T06:55:13;-3.10;99.90
5697;DHT22;2873;50.966;7.210;2022-12-18T06:57:38;-2.90;99.90
5697;DHT22;2873;50.966;7.210;2022-12-18T07:00:05;-3.20;99.90
5697;DHT22;2873;50.966;7.210;2022-12-18T07:02:31;-3.20;99.90
5697;DHT22;2873;50.966;7.210;2022-12-18T07:04:56;-3.10;99.90
5697;DHT22;2873;50.966;7.210;2022-12-18T07:07:22;-3.10;99.90
5697;DHT22;2873;50.966;7.210;2022-12-18T07:09:49;-3.20;99.90
5697;DHT22;2873;50.966;7.210;2022-12-18T07:12:15;-3.10;99.90
5697;DHT22;2873;50.966;7.210;2022-12-18T07:14:40;-3.10;99.90
5697;DHT22;2873;50.966;7.210;2022-12-18T07:17:06;-3.10;99.90
5697;DHT22;2873;50.966;7.210;2022-12-18T07:19:31;-3.10;99.90
5697;DHT22;2873;50.966;7.210;2022-12-18T07:21:57;-3.20;99.90
5697;DHT22;2873;50.966;7.210;2022-12-18T07:24:22;-3.10;99.90
5697;DHT22;2873;50.966;7.210;2022-12-18T07:26:48;-3.10;99.90
5697;DHT22;2873;50.966;7.210;2022-12-18T07:29:13;-3.00;99.90
5697;DHT22;2873;50.966;7.210;2022-12-18T07:31:39;-3.10;99.90
5697;DHT22;2873;50.966;7.210;2022-12-18T07:34:05;-2.90;99.90
5697;DHT22;2873;50.966;7.210;2022-12-18T07:36:30;-3.10;99.90
5697;DHT22;2873;50.966;7.210;2022-12-18T07:38:56;-3.10;99.90
5697;DHT22;2873;50.966;7.210;2022-12-18T07:41:21;-3.00;99.90
5697;DHT22;2873;50.966;7.210;2022-12-18T07:43:48;-3.00;99.90
5697;DHT22;2873;50.966;7.210;2022-12-18T07:46:14;-3.10;99.90
5697;DHT22;2873;50.966;7.210;2022-12-18T07:48:41;-3.10;99.90
5697;DHT22;2873;50.966;7.210;2022-12-18T07:51:06;-3.10;99.90
5697;DHT22;2873;50.966;7.210;2022-12-18T07:53:34;-3.00;99.90
5697;DHT22;2873;50.966;7.210;2022-12-18T07:56:03;-3.00;99.90
5697;DHT22;2873;50.966;7.210;2022-12-18T07:58:29;-3.00;99.90
5697;DHT22;2873;50.966;7.210;2022-12-18T08:01:05;-3.00;99.90
5697;DHT22;2873;50.966;7.210;2022-12-18T08:03:31;-3.00;99.90
5697;DHT22;2873;50.966;7.210;2022-12-18T08:06:01;-2.90;99.90
5697;DHT22;2873;50.966;7.210;2022-12-18T08:08:28;-2.90;99.90
5697;DHT22;2873;50.966;7.210;2022-12-18T08:10:54;-2.80;99.90
5697;DHT22;2873;50.966;7.210;2022-12-18T08:13:20;-2.80;99.90
5697;DHT22;2873;50.966;7.210;2022-12-18T08:15:46;-2.70;99.90
5697;DHT22;2873;50.966;7.210;2022-12-18T08:18:11;-2.60;99.90
5697;DHT22;2873;50.966;7.210;2022-12-18T08:20:37;-2.40;99.90
5697;DHT22;2873;50.966;7.210;2022-12-18T08:23:02;-2.20;99.90
5697;DHT22;2873;50.966;7.210;2022-12-18T08:25:28;-2.00;99.90
5697;DHT22;2873;50.966;7.210;2022-12-18T08:27:53;-1.70;99.90
5697;DHT22;2873;50.966;7.210;2022-12-18T08:30:19;-1.20;99.90
5697;DHT22;2873;50.966;7.210;2022-12-18T08:32:44;-0.80;99.90
5697;DHT22;2873;50.966;7.210;2022-12-18T08:35:10;-0.40;99.90
5697;DHT22;2873;50.966;7.210;2022-12-18T08:37:37;0.30;99.90
5697;DHT22;2873;50.966;7.210;2022-12-18T08:40:03;0.90;99.90
5697;DHT22;2873;50.966;7.210;2022-12-18T08:42:29;1.20;99.90
5697;DHT22;2873;50.966;7.210;2022-12-18T08:45:13;1.50;99.90
5697;DHT22;2873;50.966;7.210;2022-12-18T08:47:38;1.50;99.90
5697;DHT22;2873;50.966;7.210;2022-12-18T08:50:04;1.90;99.90
5697;DHT22;2873;50.966;7.210;2022-12-18T08:52:32;2.20;99.90
5697;DHT22;2873;50.966;7.210;2022-12-18T08:54:57;2.20;99.90
5697;DHT22;2873;50.966;7.210;2022-12-18T08:57:23;2.60;99.90
5697;DHT22;2873;50.966;7.210;2022-12-18T08:59:48;2.80;99.90
5697;DHT22;2873;50.966;7.210;2022-12-18T09:02:14;3.10;99.90
5697;DHT22;2873;50.966;7.210;2022-12-18T09:04:39;3.40;99.90
5697;DHT22;2873;50.966;7.210;2022-12-18T09:07:05;3.60;99.90
5697;DHT22;2873;50.966;7.210;2022-12-18T09:09:30;3.60;99.90
5697;DHT22;2873;50.966;7.210;2022-12-18T09:11:56;3.60;99.90
5697;DHT22;2873;50.966;7.210;2022-12-18T09:14:22;3.90;99.90
5697;DHT22;2873;50.966;7.210;2022-12-18T09:16:47;4.10;99.90
5697;DHT22;2873;50.966;7.210;2022-12-18T09:19:13;3.90;99.90
5697;DHT22;2873;50.966;7.210;2022-12-18T09:21:39;3.80;99.90
5697;DHT22;2873;50.966;7.210;2022-12-18T09:24:05;3.50;99.90
5697;DHT22;2873;50.966;7.210;2022-12-18T09:26:31;3.40;99.90
5697;DHT22;2873;50.966;7.210;2022-12-18T09:28:57;3.00;99.90
5697;DHT22;2873;50.966;7.210;2022-12-18T09:31:23;3.00;99.90
5697;DHT22;2873;50.966;7.210;2022-12-18T09:33:50;3.00;99.90
5697;DHT22;2873;50.966;7.210;2022-12-18T09:36:17;3.00;99.90
5697;DHT22;2873;50.966;7.210;2022-12-18T09:38:43;3.00;99.90
5697;DHT22;2873;50.966;7.210;2022-12-18T09:44:00;3.90;99.90
5697;DHT22;2873;50.966;7.210;2022-12-18T09:46:33;3.90;99.90
5697;DHT22;2873;50.966;7.210;2022-12-18T09:49:02;3.90;99.90
5697;DHT22;2873;50.966;7.210;2022-12-18T09:51:45;3.90;99.90
5697;DHT22;2873;50.966;7.210;2022-12-18T09:54:16;3.50;99.90
5697;DHT22;2873;50.966;7.210;2022-12-18T09:56:43;3.60;99.90
5697;DHT22;2873;50.966;7.210;2022-12-18T09:59:23;3.40;99.90
5697;DHT22;2873;50.966;7.210;2022-12-18T10:01:49;3.60;99.90
5697;DHT22;2873;50.966;7.210;2022-12-18T10:04:15;3.50;99.90
5697;DHT22;2873;50.966;7.210;2022-12-18T10:09:34;2.90;99.90
5697;DHT22;2873;50.966;7.210;2022-12-18T10:12:31;2.70;99.90
5697;DHT22;2873;50.966;7.210;2022-12-18T10:17:45;2.30;99.90
5697;DHT22;2873;50.966;7.210;2022-12-18T10:23:21;2.30;99.90
5697;DHT22;2873;50.966;7.210;2022-12-18T10:26:10;2.40;99.90
5697;DHT22;2873;50.966;7.210;2022-12-18T10:28:37;2.30;99.90
5697;DHT22;2873;50.966;7.210;2022-12-18T10:31:06;2.30;99.90
5697;DHT22;2873;50.966;7.210;2022-12-18T10:33:33;2.10;99.90
5697;DHT22;2873;50.966;7.210;2022-12-18T10:35:59;2.30;99.90
5697;DHT22;2873;50.966;7.210;2022-12-18T10:38:27;2.40;99.90
5697;DHT22;2873;50.966;7.210;2022-12-18T10:43:35;2.70;99.90
5697;DHT22;2873;50.966;7.210;2022-12-18T10:51:06;2.90;99.90
5697;DHT22;2873;50.966;7.210;2022-12-18T10:53:34;2.90;99.90
5697;DHT22;2873;50.966;7.210;2022-12-18T10:56:00;2.90;99.90
5697;DHT22;2873;50.966;7.210;2022-12-18T10:58:30;3.10;99.90
5697;DHT22;2873;50.966;7.210;2022-12-18T11:01:09;2.90;99.90
5697;DHT22;2873;50.966;7.210;2022-12-18T11:03:38;3.20;99.90
5697;DHT22;2873;50.966;7.210;2022-12-18T11:06:14;3.20;99.90
5697;DHT22;2873;50.966;7.210;2022-12-18T11:08:41;3.40;99.90
5697;DHT22;2873;50.966;7.210;2022-12-18T11:11:20;3.30;99.90
5697;DHT22;2873;50.966;7.210;2022-12-18T11:14:05;3.20;99.90
5697;DHT22;2873;50.966;7.210;2022-12-18T11:16:42;3.10;99.90
5697;DHT22;2873;50.966;7.210;2022-12-18T11:19:33;2.50;99.90
5697;DHT22;2873;50.966;7.210;2022-12-18T11:22:45;2.40;99.90
5697;DHT22;2873;50.966;7.210;2022-12-18T11:24:54;2.50;99.90
5697;DHT22;2873;50.966;7.210;2022-12-18T11:27:20;2.30;99.90
5697;DHT22;2873;50.966;7.210;2022-12-18T11:29:50;2.20;99.90
5697;DHT22;2873;50.966;7.210;2022-12-18T11:32:32;2.20;99.90
5697;DHT22;2873;50.966;7.210;2022-12-18T11:35:13;2.50;99.90
5697;DHT22;2873;50.966;7.210;2022-12-18T11:37:43;2.30;99.90
5697;DHT22;2873;50.966;7.210;2022-12-18T11:40:18;2.10;99.90
5697;DHT22;2873;50.966;7.210;2022-12-18T11:45:34;2.20;99.90
5697;DHT22;2873;50.966;7.210;2022-12-18T11:48:06;2.00;99.90
5697;DHT22;2873;50.966;7.210;2022-12-18T11:50:50;2.00;99.90
5697;DHT22;2873;50.966;7.210;2022-12-18T11:53:17;2.00;99.90
5697;DHT22;2873;50.966;7.210;2022-12-18T11:56:08;1.90;99.90
5697;DHT22;2873;50.966;7.210;2022-12-18T11:58:48;1.90;99.90
5697;DHT22;2873;50.966;7.210;2022-12-18T12:01:31;1.70;99.90
5697;DHT22;2873;50.966;7.210;2022-12-18T12:04:13;1.50;99.90
5697;DHT22;2873;50.966;7.210;2022-12-18T12:07:31;1.50;99.90
5697;DHT22;2873;50.966;7.210;2022-12-18T12:21:07;1.30;99.90
5697;DHT22;2873;50.966;7.210;2022-12-18T12:34:18;1.00;99.90
5697;DHT22;2873;50.966;7.210;2022-12-18T12:37:13;0.80;99.90
5697;DHT22;2873;50.966;7.210;2022-12-18T12:39:44;0.70;99.90
5697;DHT22;2873;50.966;7.210;2022-12-18T12:42:20;0.70;99.90
5697;DHT22;2873;50.966;7.210;2022-12-18T12:45:16;0.70;99.90
5697;DHT22;2873;50.966;7.210;2022-12-18T12:47:44;0.60;99.90
5697;DHT22;2873;50.966;7.210;2022-12-18T12:50:15;0.80;99.90
5697;DHT22;2873;50.966;7.210;2022-12-18T12:52:47;0.80;99.90
5697;DHT22;2873;50.966;7.210;2022-12-18T12:55:40;0.60;99.90
5697;DHT22;2873;50.966;7.210;2022-12-18T13:06:53;0.40;99.90
5697;DHT22;2873;50.966;7.210;2022-12-18T13:09:21;0.10;99.90
5697;DHT22;2873;50.966;7.210;2022-12-18T13:11:47;0.10;99.90
5697;DHT22;2873;50.966;7.210;2022-12-18T13:14:35;0.10;99.90
5697;DHT22;2873;50.966;7.210;2022-12-18T13:25:04;0.20;99.90
5697;DHT22;2873;50.966;7.210;2022-12-18T13:38:40;0.10;99.90
5697;DHT22;2873;50.966;7.210;2022-12-18T13:41:25;0.00;99.90
5697;DHT22;2873;50.966;7.210;2022-12-18T13:44:11;0.00;99.90
5697;DHT22;2873;50.966;7.210;2022-12-18T13:46:45;-0.10;99.90
5697;DHT22;2873;50.966;7.210;2022-12-18T13:51:46;-0.10;99.90
5697;DHT22;2873;50.966;7.210;2022-12-18T13:54:36;-0.20;99.90
5697;DHT22;2873;50.966;7.210;2022-12-18T13:57:03;-0.20;99.90
5697;DHT22;2873;50.966;7.210;2022-12-18T13:59:37;-0.30;99.90
5697;DHT22;2873;50.966;7.210;2022-12-18T14:02:16;-0.40;99.90
5697;DHT22;2873;50.966;7.210;2022-12-18T14:04:45;-0.30;99.90
5697;DHT22;2873;50.966;7.210;2022-12-18T14:09:43;-0.30;99.90
5697;DHT22;2873;50.966;7.210;2022-12-18T14:12:33;-0.40;99.90
5697;DHT22;2873;50.966;7.210;2022-12-18T14:17:53;-0.50;99.90
5697;DHT22;2873;50.966;7.210;2022-12-18T14:20:19;-0.60;99.90
5697;DHT22;2873;50.966;7.210;2022-12-18T14:22:47;-0.50;99.90
5697;DHT22;2873;50.966;7.210;2022-12-18T14:25:22;-0.60;99.90
5697;DHT22;2873;50.966;7.210;2022-12-18T14:27:52;-0.60;99.90
5697;DHT22;2873;50.966;7.210;2022-12-18T14:33:03;-0.60;99.90
5697;DHT22;2873;50.966;7.210;2022-12-18T14:35:29;-0.60;99.90
5697;DHT22;2873;50.966;7.210;2022-12-18T14:40:47;-0.70;99.90
5697;DHT22;2873;50.966;7.210;2022-12-18T14:43:13;-0.70;99.90
5697;DHT22;2873;50.966;7.210;2022-12-18T14:45:42;-0.70;99.90
5697;DHT22;2873;50.966;7.210;2022-12-18T14:48:20;-0.70;99.90
5697;DHT22;2873;50.966;7.210;2022-12-18T14:51:02;-0.80;99.90
5697;DHT22;2873;50.966;7.210;2022-12-18T14:53:41;-0.80;99.90
5697;DHT22;2873;50.966;7.210;2022-12-18T14:56:18;-0.90;99.90
5697;DHT22;2873;50.966;7.210;2022-12-18T14:58:59;-1.00;99.90
5697;DHT22;2873;50.966;7.210;2022-12-18T15:01:26;-1.00;99.90
5697;DHT22;2873;50.966;7.210;2022-12-18T15:03:53;-1.00;99.90
5697;DHT22;2873;50.966;7.210;2022-12-18T15:06:38;-1.00;99.90
5697;DHT22;2873;50.966;7.210;2022-12-18T15:09:25;-1.00;99.90
5697;DHT22;2873;50.966;7.210;2022-12-18T15:11:59;-1.10;99.90
5697;DHT22;2873;50.966;7.210;2022-12-18T15:17:26;-1.10;99.90
5697;DHT22;2873;50.966;7.210;2022-12-18T15:19:53;-1.10;99.90
5697;DHT22;2873;50.966;7.210;2022-12-18T15:22:33;-1.00;99.90
5697;DHT22;2873;50.966;7.210;2022-12-18T15:24:59;-1.10;99.90
5697;DHT22;2873;50.966;7.210;2022-12-18T15:27:33;-1.00;99.90
5697;DHT22;2873;50.966;7.210;2022-12-18T15:30:03;-1.00;99.90
5697;DHT22;2873;50.966;7.210;2022-12-18T15:32:40;-0.90;99.90
5697;DHT22;2873;50.966;7.210;2022-12-18T15:35:19;-1.00;99.90
5697;DHT22;2873;50.966;7.210;2022-12-18T15:37:45;-1.00;99.90
5697;DHT22;2873;50.966;7.210;2022-12-18T15:40:19;-1.10;99.90
5697;DHT22;2873;50.966;7.210;2022-12-18T15:42:46;-1.10;99.90
5697;DHT22;2873;50.966;7.210;2022-12-18T15:45:30;-1.20;99.90
5697;DHT22;2873;50.966;7.210;2022-12-18T15:47:56;-1.10;99.90
5697;DHT22;2873;50.966;7.210;2022-12-18T15:50:22;-1.10;99.90
5697;DHT22;2873;50.966;7.210;2022-12-18T15:52:49;-1.10;99.90
5697;DHT22;2873;50.966;7.210;2022-12-18T15:55:20;-1.10;99.90
5697;DHT22;2873;50.966;7.210;2022-12-18T15:58:05;-1.10;99.90
5697;DHT22;2873;50.966;7.210;2022-12-18T16:00:32;-1.10;99.90
5697;DHT22;2873;50.966;7.210;2022-12-18T16:02:59;-1.20;99.90
5697;DHT22;2873;50.966;7.210;2022-12-18T16:05:26;-1.20;99.90
5697;DHT22;2873;50.966;7.210;2022-12-18T16:07:52;-1.40;99.90
5697;DHT22;2873;50.966;7.210;2022-12-18T16:10:18;-1.40;99.90
5697;DHT22;2873;50.966;7.210;2022-12-18T16:12:43;-1.30;99.90
5697;DHT22;2873;50.966;7.210;2022-12-18T16:15:11;-1.20;99.90
5697;DHT22;2873;50.966;7.210;2022-12-18T16:17:39;-1.30;99.90
5697;DHT22;2873;50.966;7.210;2022-12-18T16:20:06;-1.30;99.90
5697;DHT22;2873;50.966;7.210;2022-12-18T16:22:31;-1.20;99.90
5697;DHT22;2873;50.966;7.210;2022-12-18T16:24:57;-1.30;99.90
5697;DHT22;2873;50.966;7.210;2022-12-18T16:27:24;-1.30;99.90
5697;DHT22;2873;50.966;7.210;2022-12-18T16:29:50;-1.50;99.90
5697;DHT22;2873;50.966;7.210;2022-12-18T16:32:18;-1.50;99.90
5697;DHT22;2873;50.966;7.210;2022-12-18T16:34:44;-1.40;99.90
5697;DHT22;2873;50.966;7.210;2022-12-18T16:37:12;-1.30;99.90
5697;DHT22;2873;50.966;7.210;2022-12-18T16:39:38;-1.50;99.90
5697;DHT22;2873;50.966;7.210;2022-12-18T16:42:16;-1.40;99.90
5697;DHT22;2873;50.966;7.210;2022-12-18T16:44:44;-1.40;99.90
5697;DHT22;2873;50.966;7.210;2022-12-18T16:47:10;-1.40;99.90
5697;DHT22;2873;50.966;7.210;2022-12-18T16:49:36;-1.50;99.90
5697;DHT22;2873;50.966;7.210;2022-12-18T16:52:02;-1.40;99.90
5697;DHT22;2873;50.966;7.210;2022-12-18T16:54:28;-1.30;99.90
5697;DHT22;2873;50.966;7.210;2022-12-18T16:56:59;-1.20;99.90
5697;DHT22;2873;50.966;7.210;2022-12-18T16:59:25;-1.30;99.90
5697;DHT22;2873;50.966;7.210;2022-12-18T17:01:51;-1.50;99.90
5697;DHT22;2873;50.966;7.210;2022-12-18T17:04:17;-1.40;99.90
5697;DHT22;2873;50.966;7.210;2022-12-18T17:06:44;-1.40;99.90
5697;DHT22;2873;50.966;7.210;2022-12-18T17:09:12;-1.40;99.90
5697;DHT22;2873;50.966;7.210;2022-12-18T17:11:41;-1.30;99.90
5697;DHT22;2873;50.966;7.210;2022-12-18T17:14:09;-1.30;99.90
5697;DHT22;2873;50.966;7.210;2022-12-18T17:16:36;-1.20;99.90
5697;DHT22;2873;50.966;7.210;2022-12-18T17:19:02;-1.30;99.90
5697;DHT22;2873;50.966;7.210;2022-12-18T17:21:28;-1.40;99.90
5697;DHT22;2873;50.966;7.210;2022-12-18T17:23:53;-1.40;99.90
5697;DHT22;2873;50.966;7.210;2022-12-18T17:26:19;-1.20;99.90
5697;DHT22;2873;50.966;7.210;2022-12-18T17:28:44;-1.40;99.90
5697;DHT22;2873;50.966;7.210;2022-12-18T17:31:17;-1.40;99.90
5697;DHT22;2873;50.966;7.210;2022-12-18T17:33:43;-1.30;99.90
5697;DHT22;2873;50.966;7.210;2022-12-18T17:36:09;-1.20;99.90
5697;DHT22;2873;50.966;7.210;2022-12-18T17:38:35;-1.20;99.90
5697;DHT22;2873;50.966;7.210;2022-12-18T17:41:02;-1.20;99.90
5697;DHT22;2873;50.966;7.210;2022-12-18T17:43:28;-1.30;99.90
5697;DHT22;2873;50.966;7.210;2022-12-18T17:45:53;-1.20;99.90
5697;DHT22;2873;50.966;7.210;2022-12-18T17:48:19;-1.20;99.90
5697;DHT22;2873;50.966;7.210;2022-12-18T17:50:44;-1.10;99.90
5697;DHT22;2873;50.966;7.210;2022-12-18T17:53:10;-1.20;99.90
5697;DHT22;2873;50.966;7.210;2022-12-18T17:55:36;-1.50;99.90
5697;DHT22;2873;50.966;7.210;2022-12-18T17:58:01;-1.40;99.90
5697;DHT22;2873;50.966;7.210;2022-12-18T18:00:27;-1.40;99.90
5697;DHT22;2873;50.966;7.210;2022-12-18T18:02:53;-1.40;99.90
5697;DHT22;2873;50.966;7.210;2022-12-18T18:05:19;-1.30;99.90
5697;DHT22;2873;50.966;7.210;2022-12-18T18:07:45;-1.40;99.90
5697;DHT22;2873;50.966;7.210;2022-12-18T18:10:10;-1.40;99.90
5697;DHT22;2873;50.966;7.210;2022-12-18T18:12:36;-1.40;99.90
5697;DHT22;2873;50.966;7.210;2022-12-18T18:15:20;-1.30;99.90